Time;durP1;ratioP1;P1;durP2;ratioP2;P2;SDS_P1;SDS_P2;PMS_P1;PMS_P2;Temp;Humidity;BMP_temperature;BMP_pressure;BME280_temperature;BME280_humidity;BME280_pressure;Samples;Min_cycle;Max_cycle;Signal;HPM_P1;HPM_P2
2022/10/11 00:00:07;;;;;;;;;;;8.20;99.90;;;;;;4229230;28;19924;-65
2022/10/11 00:02:08;;;;;;;;;;;8.20;99.90;;;;;;4227821;28;20337;-62
2022/10/11 00:04:09;;;;;;;;;;;8.10;99.90;;;;;;4229198;28;19916;-62
2022/10/11 00:06:10;;;;;;;;;;;8.00;99.90;;;;;;4227494;28;20368;-63
2022/10/11 00:08:11;;;;;;;;;;;7.90;99.90;;;;;;4230092;28;19911;-62
2022/10/11 00:10:12;;;;;;;;;;;7.90;99.90;;;;;;4229247;28;19953;-61
2022/10/11 00:12:13;;;;;;;;;;;7.80;99.90;;;;;;4230077;28;20347;-62
2022/10/11 00:14:14;;;;;;;;;;;7.70;99.90;;;;;;4227968;28;19912;-61
2022/10/11 00:16:15;;;;;;;;;;;7.70;99.90;;;;;;4229855;28;19953;-62
2022/10/11 00:18:16;;;;;;;;;;;7.70;99.90;;;;;;4228671;28;20425;-62
2022/10/11 00:20:17;;;;;;;;;;;7.70;99.90;;;;;;4229414;28;19916;-61
2022/10/11 00:22:18;;;;;;;;;;;7.60;99.90;;;;;;4228664;28;20309;-62
2022/10/11 00:24:19;;;;;;;;;;;7.60;99.90;;;;;;4229572;28;19915;-62
2022/10/11 00:26:19;;;;;;;;;;;7.60;99.90;;;;;;4243878;27;19911;-63
2022/10/11 00:28:20;;;;;;;;;;;7.60;99.90;;;;;;4228855;28;19976;-62
2022/10/11 00:30:21;;;;;;;;;;;7.70;99.90;;;;;;4229022;28;19908;-62
2022/10/11 00:32:22;;;;;;;;;;;7.70;99.90;;;;;;4228920;28;19914;-61
2022/10/11 00:34:23;;;;;;;;;;;7.60;99.90;;;;;;4229322;28;19915;-64
2022/10/11 00:36:24;;;;;;;;;;;7.60;99.90;;;;;;4228667;28;19916;-62
2022/10/11 00:38:25;;;;;;;;;;;7.70;99.90;;;;;;4229813;28;20364;-61
2022/10/11 00:40:26;;;;;;;;;;;7.70;99.90;;;;;;4228252;28;19930;-65
2022/10/11 00:42:29;;;;;;;;;;;7.70;99.90;;;;;;4229452;28;19908;-61
2022/10/11 00:44:31;;;;;;;;;;;7.80;99.90;;;;;;4228486;28;19908;-62
2022/10/11 00:46:32;;;;;;;;;;;7.80;99.90;;;;;;4229307;28;19976;-63
2022/10/11 00:48:36;;;;;;;;;;;7.70;99.90;;;;;;4226501;28;19912;-61
2022/10/11 00:50:37;;;;;;;;;;;7.70;99.90;;;;;;4229709;28;19965;-62
2022/10/11 00:52:40;;;;;;;;;;;7.70;99.90;;;;;;4228172;28;20356;-62
2022/10/11 00:54:43;;;;;;;;;;;7.70;99.90;;;;;;4229326;28;19911;-61
2022/10/11 00:56:48;;;;;;;;;;;7.70;99.90;;;;;;4228285;28;19912;-62
2022/10/11 00:58:49;;;;;;;;;;;7.70;99.90;;;;;;4228936;28;19961;-62
2022/10/11 01:00:50;;;;;;;;;;;7.60;99.90;;;;;;4228180;28;20439;-62
2022/10/11 01:02:51;;;;;;;;;;;7.60;99.90;;;;;;4228459;28;19957;-62
2022/10/11 01:04:53;;;;;;;;;;;7.60;99.90;;;;;;4228577;28;19961;-61
2022/10/11 01:06:54;;;;;;;;;;;7.60;99.90;;;;;;4226853;28;20368;-62
2022/10/11 01:08:55;;;;;;;;;;;7.60;99.90;;;;;;4228755;28;20288;-62
2022/10/11 01:10:56;;;;;;;;;;;7.70;99.90;;;;;;4228385;28;19981;-62
2022/10/11 01:13:08;;;;;;;;;;;7.60;99.90;;;;;;4229173;28;20337;-62
2022/10/11 01:15:12;;;;;;;;;;;7.60;99.90;;;;;;4227907;28;20436;-61
2022/10/11 01:17:13;;;;;;;;;;;7.60;99.90;;;;;;4229082;28;19908;-62
2022/10/11 01:19:32;;;;;;;;;;;7.60;99.90;;;;;;4227248;28;19961;-61
2022/10/11 01:21:33;;;;;;;;;;;7.60;99.90;;;;;;4229012;28;19908;-62
2022/10/11 01:23:52;;;;;;;;;;;7.70;99.90;;;;;;4226659;28;19920;-62
2022/10/11 01:25:56;;;;;;;;;;;7.70;99.90;;;;;;4228905;28;19946;-61
2022/10/11 01:28:15;;;;;;;;;;;7.80;99.90;;;;;;4227830;28;19912;-62
2022/10/11 01:30:18;;;;;;;;;;;7.80;99.90;;;;;;4228853;28;20675;-60
2022/10/11 01:32:26;;;;;;;;;;;7.80;99.90;;;;;;4228099;28;20673;-62
2022/10/11 01:34:40;;;;;;;;;;;7.80;99.90;;;;;;4228948;28;19912;-64
2022/10/11 01:36:47;;;;;;;;;;;7.80;99.90;;;;;;4227763;28;20256;-60
2022/10/11 01:38:54;;;;;;;;;;;7.80;99.90;;;;;;4227718;28;19908;-61
2022/10/11 01:40:58;;;;;;;;;;;7.90;99.90;;;;;;4227822;28;19954;-62
2022/10/11 01:43:00;;;;;;;;;;;7.90;99.90;;;;;;4228975;28;19908;-61
2022/10/11 01:45:01;;;;;;;;;;;7.90;99.90;;;;;;4227636;28;19916;-61
2022/10/11 01:47:02;;;;;;;;;;;8.00;99.90;;;;;;4228906;28;20414;-61
2022/10/11 01:49:04;;;;;;;;;;;8.00;99.90;;;;;;4227546;28;19955;-60
2022/10/11 01:51:04;;;;;;;;;;;8.10;99.90;;;;;;4228695;28;20363;-60
2022/10/11 01:53:22;;;;;;;;;;;8.00;99.90;;;;;;4227476;28;19907;-63
2022/10/11 01:55:38;;;;;;;;;;;7.90;99.90;;;;;;4228450;28;20325;-64
2022/10/11 01:57:52;;;;;;;;;;;7.70;99.90;;;;;;4227576;28;19965;-61
2022/10/11 02:00:10;;;;;;;;;;;7.70;99.90;;;;;;4228708;28;19916;-63
2022/10/11 02:02:31;;;;;;;;;;;7.70;99.90;;;;;;4210771;28;19924;-63
2022/10/11 02:04:49;;;;;;;;;;;7.60;99.90;;;;;;4211882;28;19962;-62
2022/10/11 02:06:56;;;;;;;;;;;7.60;99.90;;;;;;4227114;28;19915;-61
2022/10/11 02:08:57;;;;;;;;;;;7.70;99.90;;;;;;4227666;28;19912;-61
2022/10/11 02:10:58;;;;;;;;;;;7.60;99.90;;;;;;4227829;28;19908;-62
2022/10/11 02:13:11;;;;;;;;;;;7.60;99.90;;;;;;4228700;28;20602;-61
2022/10/11 02:15:13;;;;;;;;;;;7.60;99.90;;;;;;4229216;28;19956;-62
2022/10/11 02:17:16;;;;;;;;;;;7.50;99.90;;;;;;4231562;28;19915;-63
2022/10/11 02:19:18;;;;;;;;;;;7.50;99.90;;;;;;4230357;28;19924;-61
2022/10/11 02:21:21;;;;;;;;;;;7.50;99.90;;;;;;4231722;28;20060;-61
2022/10/11 02:23:25;;;;;;;;;;;7.40;99.90;;;;;;4230487;28;19907;-60
2022/10/11 02:25:27;;;;;;;;;;;7.40;99.90;;;;;;4231515;28;19912;-63
2022/10/11 02:27:29;;;;;;;;;;;7.40;99.90;;;;;;4230574;28;19908;-61
2022/10/11 02:29:32;;;;;;;;;;;7.40;99.90;;;;;;4231287;28;19957;-61
2022/10/11 02:31:34;;;;;;;;;;;7.40;99.90;;;;;;4230800;28;19957;-60
2022/10/11 02:33:39;;;;;;;;;;;7.40;99.90;;;;;;4230770;28;19964;-61
2022/10/11 02:35:44;;;;;;;;;;;7.40;99.90;;;;;;4230704;28;20354;-61
2022/10/11 02:38:00;;;;;;;;;;;7.40;99.90;;;;;;4230519;28;19907;-62
2022/10/11 02:40:05;;;;;;;;;;;7.40;99.90;;;;;;4230711;28;19961;-61
2022/10/11 02:42:11;;;;;;;;;;;7.50;99.90;;;;;;4230565;28;19916;-62
2022/10/11 02:44:16;;;;;;;;;;;7.40;99.90;;;;;;4230678;28;19911;-62
2022/10/11 02:46:17;;;;;;;;;;;7.50;99.90;;;;;;4230538;27;20035;-61
2022/10/11 02:48:18;;;;;;;;;;;7.50;99.90;;;;;;4230931;28;20429;-61
2022/10/11 02:50:20;;;;;;;;;;;7.50;99.90;;;;;;4230084;28;20314;-65
2022/10/11 02:52:21;;;;;;;;;;;7.60;99.90;;;;;;4231310;28;19907;-61
2022/10/11 02:54:23;;;;;;;;;;;7.60;99.90;;;;;;4229655;28;20780;-61
2022/10/11 02:56:24;;;;;;;;;;;7.70;99.90;;;;;;4231154;28;19957;-60
2022/10/11 02:58:25;;;;;;;;;;;7.70;99.90;;;;;;4229774;28;19908;-62
2022/10/11 03:00:26;;;;;;;;;;;7.80;99.90;;;;;;4231018;28;20397;-61
2022/10/11 03:02:27;;;;;;;;;;;7.80;99.90;;;;;;4229774;28;19920;-61
2022/10/11 03:04:28;;;;;;;;;;;7.90;99.90;;;;;;4231089;28;19915;-62
2022/10/11 03:06:28;;;;;;;;;;;7.90;99.90;;;;;;4229928;28;19911;-61
2022/10/11 03:08:30;;;;;;;;;;;7.80;99.90;;;;;;4229925;27;19915;-62
2022/10/11 03:10:32;;;;;;;;;;;7.70;99.90;;;;;;4229971;27;19916;-62
2022/10/11 03:12:33;;;;;;;;;;;7.70;99.90;;;;;;4230059;28;19919;-61
2022/10/11 03:14:34;;;;;;;;;;;7.60;99.90;;;;;;4230330;28;20014;-62
2022/10/11 03:16:35;;;;;;;;;;;7.60;99.90;;;;;;4230020;28;19918;-62
2022/10/11 03:18:36;;;;;;;;;;;7.60;99.90;;;;;;4230815;28;20030;-61
2022/10/11 03:20:37;;;;;;;;;;;7.60;99.90;;;;;;4229576;28;19919;-63
2022/10/11 03:22:37;;;;;;;;;;;7.50;99.90;;;;;;4231100;28;19923;-61
2022/10/11 03:24:38;;;;;;;;;;;7.60;99.90;;;;;;4229964;27;19912;-62
2022/10/11 03:26:39;;;;;;;;;;;7.60;99.90;;;;;;4229546;28;19960;-61
2022/10/11 03:28:40;;;;;;;;;;;7.60;99.90;;;;;;4229516;28;19908;-62
2022/10/11 03:30:41;;;;;;;;;;;7.60;99.90;;;;;;4230002;28;19916;-61
2022/10/11 03:32:43;;;;;;;;;;;7.60;99.90;;;;;;4229474;28;19914;-61
2022/10/11 03:34:44;;;;;;;;;;;7.60;99.90;;;;;;4229919;28;19920;-63
2022/10/11 03:36:45;;;;;;;;;;;7.60;99.90;;;;;;4229004;28;20389;-61
2022/10/11 03:38:46;;;;;;;;;;;7.60;99.90;;;;;;4230140;28;19957;-61
2022/10/11 03:40:47;;;;;;;;;;;7.60;99.90;;;;;;4229057;28;19927;-62
2022/10/11 03:42:47;;;;;;;;;;;7.60;99.90;;;;;;4229747;28;19918;-62
2022/10/11 03:44:50;;;;;;;;;;;7.50;99.90;;;;;;4229620;28;19918;-62
2022/10/11 03:46:51;;;;;;;;;;;7.40;99.90;;;;;;4244176;27;19907;-62
2022/10/11 03:48:52;;;;;;;;;;;7.40;99.90;;;;;;4229784;28;19907;-62
2022/10/11 03:50:53;;;;;;;;;;;7.40;99.90;;;;;;4228892;28;19912;-62
2022/10/11 03:52:54;;;;;;;;;;;7.40;99.90;;;;;;4228497;28;19911;-62
2022/10/11 03:54:55;;;;;;;;;;;7.40;99.90;;;;;;4227037;28;20014;-64
2022/10/11 03:56:57;;;;;;;;;;;7.40;99.90;;;;;;4229951;28;19908;-63
2022/10/11 03:58:58;;;;;;;;;;;7.40;99.90;;;;;;4228663;28;19912;-62
2022/10/11 04:00:59;;;;;;;;;;;7.40;99.90;;;;;;4236547;27;19919;-64
2022/10/11 04:03:02;;;;;;;;;;;7.40;99.90;;;;;;4231499;27;19912;-62
2022/10/11 04:05:05;;;;;;;;;;;7.40;99.90;;;;;;4229710;28;20326;-63
2022/10/11 04:07:06;;;;;;;;;;;7.40;99.90;;;;;;4233765;27;20329;-63
2022/10/11 04:09:07;;;;;;;;;;;7.50;99.90;;;;;;4233539;27;19912;-65
2022/10/11 04:11:08;;;;;;;;;;;7.50;99.90;;;;;;4228743;28;19907;-63
2022/10/11 04:13:10;;;;;;;;;;;7.40;99.90;;;;;;4228610;28;19915;-60
2022/10/11 04:15:13;;;;;;;;;;;7.40;99.90;;;;;;4228562;28;19997;-64
2022/10/11 04:17:14;;;;;;;;;;;7.40;99.90;;;;;;4228350;28;19920;-62
2022/10/11 04:19:15;;;;;;;;;;;7.40;99.90;;;;;;4228233;28;19912;-62
2022/10/11 04:21:16;;;;;;;;;;;7.40;99.90;;;;;;4227765;28;20376;-62
2022/10/11 04:23:17;;;;;;;;;;;7.40;99.90;;;;;;4229008;28;19908;-62
2022/10/11 04:25:18;;;;;;;;;;;7.30;99.90;;;;;;4227974;28;19931;-62
2022/10/11 04:27:19;;;;;;;;;;;7.40;99.90;;;;;;4226765;28;19920;-62
2022/10/11 04:29:20;;;;;;;;;;;7.40;99.90;;;;;;4227598;28;19915;-62
2022/10/11 04:31:21;;;;;;;;;;;7.30;99.90;;;;;;4228743;28;19916;-62
2022/10/11 04:33:22;;;;;;;;;;;7.30;99.90;;;;;;4226528;28;19939;-62
2022/10/11 04:35:23;;;;;;;;;;;7.20;99.90;;;;;;4228693;28;19964;-62
2022/10/11 04:37:24;;;;;;;;;;;7.20;99.90;;;;;;4227727;28;20616;-63
2022/10/11 04:39:25;;;;;;;;;;;7.20;99.90;;;;;;4228906;28;19907;-63
2022/10/11 04:41:27;;;;;;;;;;;7.10;99.90;;;;;;4224451;27;19960;-61
2022/10/11 04:43:28;;;;;;;;;;;7.20;99.90;;;;;;4227814;28;19920;-62
2022/10/11 04:45:29;;;;;;;;;;;7.20;99.90;;;;;;4228430;28;19908;-63
2022/10/11 04:47:30;;;;;;;;;;;7.10;99.90;;;;;;4228094;28;19930;-64
2022/10/11 04:49:31;;;;;;;;;;;7.10;99.90;;;;;;4227193;27;19923;-61
2022/10/11 04:51:32;;;;;;;;;;;7.10;99.90;;;;;;4227677;28;19961;-61
2022/10/11 04:53:33;;;;;;;;;;;7.00;99.90;;;;;;4228554;28;19953;-61
2022/10/11 04:55:34;;;;;;;;;;;7.00;99.90;;;;;;4225949;28;19920;-64
2022/10/11 04:57:35;;;;;;;;;;;7.00;99.90;;;;;;4241751;27;19912;-63
2022/10/11 04:59:36;;;;;;;;;;;7.00;99.90;;;;;;4227481;28;20014;-60
2022/10/11 05:01:37;;;;;;;;;;;7.00;99.90;;;;;;4227064;28;19931;-62
2022/10/11 05:03:38;;;;;;;;;;;7.00;99.90;;;;;;4227545;28;20308;-64
2022/10/11 05:05:39;;;;;;;;;;;7.00;99.90;;;;;;4228463;28;20632;-63
2022/10/11 05:07:39;;;;;;;;;;;7.00;99.90;;;;;;4227471;28;19916;-63
2022/10/11 05:09:40;;;;;;;;;;;7.00;99.90;;;;;;4228509;28;19919;-64
2022/10/11 05:11:41;;;;;;;;;;;7.00;99.90;;;;;;4227075;27;19908;-64
2022/10/11 05:13:43;;;;;;;;;;;7.10;99.90;;;;;;4226501;28;20382;-63
2022/10/11 05:15:44;;;;;;;;;;;7.00;99.90;;;;;;4227715;28;19904;-61
2022/10/11 05:17:45;;;;;;;;;;;7.10;99.90;;;;;;4227656;28;19961;-62
2022/10/11 05:19:46;;;;;;;;;;;7.00;99.90;;;;;;4228203;28;20383;-62
2022/10/11 05:21:46;;;;;;;;;;;7.00;99.90;;;;;;4227517;28;20005;-62
2022/10/11 05:23:49;;;;;;;;;;;7.00;99.90;;;;;;4228343;28;19961;-62
2022/10/11 05:25:49;;;;;;;;;;;7.00;99.90;;;;;;4227085;28;19992;-62
2022/10/11 05:27:50;;;;;;;;;;;7.00;99.90;;;;;;4228249;28;20253;-61
2022/10/11 05:29:51;;;;;;;;;;;7.00;99.90;;;;;;4227611;28;19926;-63
2022/10/11 05:31:52;;;;;;;;;;;7.00;99.90;;;;;;4228009;28;19912;-62
2022/10/11 05:33:53;;;;;;;;;;;7.00;99.90;;;;;;4226710;28;19919;-62
2022/10/11 05:35:54;;;;;;;;;;;7.00;99.90;;;;;;4227323;28;19915;-63
2022/10/11 05:37:55;;;;;;;;;;;6.90;99.90;;;;;;4225141;28;19919;-62
2022/10/11 05:39:56;;;;;;;;;;;6.90;99.90;;;;;;4228375;28;19915;-60
2022/10/11 05:41:57;;;;;;;;;;;6.90;99.90;;;;;;4228040;28;19916;-61
2022/10/11 05:43:58;;;;;;;;;;;6.80;99.90;;;;;;4227572;28;19914;-61
2022/10/11 05:45:59;;;;;;;;;;;6.80;99.90;;;;;;4223503;28;19912;-62
2022/10/11 05:48:00;;;;;;;;;;;6.80;99.90;;;;;;4226180;28;19957;-62
2022/10/11 05:50:01;;;;;;;;;;;6.80;99.90;;;;;;4230093;27;20405;-61
2022/10/11 05:52:01;;;;;;;;;;;6.80;99.90;;;;;;4227314;28;19918;-61
2022/10/11 05:54:02;;;;;;;;;;;6.80;99.90;;;;;;4230412;28;20334;-62
2022/10/11 05:56:04;;;;;;;;;;;6.80;99.90;;;;;;4224201;28;20432;-62
2022/10/11 05:58:05;;;;;;;;;;;6.80;99.90;;;;;;4227945;28;19912;-61
2022/10/11 06:00:07;;;;;;;;;;;6.80;99.90;;;;;;4230443;27;19973;-61
2022/10/11 06:02:11;;;;;;;;;;;6.90;99.90;;;;;;4232002;27;19927;-61
2022/10/11 06:04:13;;;;;;;;;;;7.10;99.90;;;;;;4230070;28;19937;-61
2022/10/11 06:06:15;;;;;;;;;;;7.10;99.90;;;;;;4231564;28;19912;-60
2022/10/11 06:08:16;;;;;;;;;;;7.20;99.90;;;;;;4230566;27;19912;-61
2022/10/11 06:10:17;;;;;;;;;;;7.30;99.90;;;;;;4231420;28;19944;-62
2022/10/11 06:12:18;;;;;;;;;;;7.30;99.90;;;;;;4230900;28;19957;-62
2022/10/11 06:14:19;;;;;;;;;;;7.30;99.90;;;;;;4231030;28;19920;-61
2022/10/11 06:16:19;;;;;;;;;;;7.40;99.90;;;;;;4230659;28;20256;-60
2022/10/11 06:18:20;;;;;;;;;;;7.40;99.90;;;;;;4230383;28;19915;-62
2022/10/11 06:20:21;;;;;;;;;;;7.40;99.90;;;;;;4231149;28;19963;-61
2022/10/11 06:22:22;;;;;;;;;;;7.40;99.90;;;;;;4230405;28;19908;-59
2022/10/11 06:24:23;;;;;;;;;;;7.50;99.90;;;;;;4231116;28;19911;-61
2022/10/11 06:26:24;;;;;;;;;;;7.50;99.90;;;;;;4229963;28;19911;-60
2022/10/11 06:28:26;;;;;;;;;;;7.60;99.90;;;;;;4230887;27;19919;-61
2022/10/11 06:30:27;;;;;;;;;;;7.60;99.90;;;;;;4229958;28;19911;-61
2022/10/11 06:32:28;;;;;;;;;;;7.70;99.90;;;;;;4231597;28;20512;-60
2022/10/11 06:34:29;;;;;;;;;;;7.70;99.90;;;;;;4230034;28;19919;-61
2022/10/11 06:36:30;;;;;;;;;;;7.80;99.90;;;;;;4231204;28;20276;-61
2022/10/11 06:38:31;;;;;;;;;;;7.70;99.90;;;;;;4229582;28;19964;-60
2022/10/11 06:40:32;;;;;;;;;;;7.80;99.90;;;;;;4230584;28;19980;-61
2022/10/11 06:42:33;;;;;;;;;;;7.80;99.90;;;;;;4231080;28;19912;-62
2022/10/11 06:44:34;;;;;;;;;;;7.80;99.90;;;;;;4230738;28;20427;-62
2022/10/11 06:46:35;;;;;;;;;;;7.80;99.90;;;;;;4229640;28;19953;-61
2022/10/11 06:48:40;;;;;;;;;;;7.90;99.90;;;;;;4230365;28;19916;-61
2022/10/11 06:50:41;;;;;;;;;;;7.90;99.90;;;;;;4230861;27;19915;-61
2022/10/11 06:52:42;;;;;;;;;;;8.00;99.90;;;;;;4229380;28;19964;-61
2022/10/11 06:54:43;;;;;;;;;;;8.00;99.90;;;;;;4230614;27;20310;-61
2022/10/11 06:56:44;;;;;;;;;;;8.10;99.90;;;;;;4229721;28;19908;-60
2022/10/11 06:58:46;;;;;;;;;;;8.20;99.90;;;;;;4230934;28;20274;-60
2022/10/11 07:00:47;;;;;;;;;;;8.30;99.90;;;;;;4229589;28;19969;-62
2022/10/11 07:02:48;;;;;;;;;;;8.40;99.90;;;;;;4230858;27;19920;-61
2022/10/11 07:04:49;;;;;;;;;;;8.40;99.90;;;;;;4229641;28;20363;-62
2022/10/11 07:06:50;;;;;;;;;;;8.50;99.90;;;;;;4231038;28;19907;-61
2022/10/11 07:08:51;;;;;;;;;;;8.70;99.90;;;;;;4229643;27;19938;-61
2022/10/11 07:10:52;;;;;;;;;;;8.80;99.90;;;;;;4230042;28;19908;-62
2022/10/11 07:12:53;;;;;;;;;;;8.90;99.90;;;;;;4229529;28;20706;-61
2022/10/11 07:14:54;;;;;;;;;;;9.00;99.90;;;;;;4228896;27;20429;-62
2022/10/11 07:16:56;;;;;;;;;;;9.10;99.90;;;;;;4229104;28;19976;-61
2022/10/11 07:18:58;;;;;;;;;;;9.10;99.90;;;;;;4228716;28;19957;-61
2022/10/11 07:21:03;;;;;;;;;;;9.20;99.90;;;;;;4228647;28;19977;-60
2022/10/11 07:23:04;;;;;;;;;;;9.30;99.90;;;;;;4229455;28;20441;-61
2022/10/11 07:25:05;;;;;;;;;;;9.30;99.90;;;;;;4230010;28;20370;-61
2022/10/11 07:27:06;;;;;;;;;;;9.30;99.90;;;;;;4228929;28;19908;-61
2022/10/11 07:29:08;;;;;;;;;;;9.50;99.90;;;;;;4230376;27;19912;-61
2022/10/11 07:31:11;;;;;;;;;;;9.70;99.90;;;;;;4228904;28;19915;-61
2022/10/11 07:33:12;;;;;;;;;;;9.70;99.90;;;;;;4230430;28;20325;-61
2022/10/11 07:35:13;;;;;;;;;;;9.80;99.90;;;;;;4227903;27;19908;-62
2022/10/11 07:37:14;;;;;;;;;;;9.90;99.90;;;;;;4230055;28;20293;-62
2022/10/11 07:39:14;;;;;;;;;;;9.90;99.90;;;;;;4228760;27;19908;-61
2022/10/11 07:41:16;;;;;;;;;;;10.00;99.90;;;;;;4229826;28;19924;-60
2022/10/11 07:43:16;;;;;;;;;;;10.00;99.90;;;;;;4228258;28;19953;-61
2022/10/11 07:45:17;;;;;;;;;;;10.10;99.90;;;;;;4229183;28;20059;-61
2022/10/11 07:47:18;;;;;;;;;;;10.20;99.90;;;;;;4228569;28;20340;-62
2022/10/11 07:49:19;;;;;;;;;;;10.30;99.90;;;;;;4229074;28;19912;-62
2022/10/11 07:51:21;;;;;;;;;;;10.30;99.90;;;;;;4228981;28;19908;-62
2022/10/11 07:53:22;;;;;;;;;;;10.40;99.90;;;;;;4228716;28;20375;-63
2022/10/11 07:55:26;;;;;;;;;;;10.50;99.90;;;;;;4229372;28;19908;-62
2022/10/11 07:57:27;;;;;;;;;;;10.60;99.90;;;;;;4228210;28;19984;-61
2022/10/11 07:59:28;;;;;;;;;;;10.70;99.90;;;;;;4228646;28;19918;-61
2022/10/11 08:01:29;;;;;;;;;;;10.90;99.90;;;;;;4227870;28;19959;-60
2022/10/11 08:03:30;;;;;;;;;;;11.00;99.90;;;;;;4229820;28;19907;-61
2022/10/11 08:05:31;;;;;;;;;;;11.20;99.90;;;;;;4226878;28;19908;-61
2022/10/11 08:07:32;;;;;;;;;;;11.30;99.90;;;;;;4229441;28;19908;-61
2022/10/11 08:09:33;;;;;;;;;;;11.50;99.90;;;;;;4228057;28;19912;-61
2022/10/11 08:11:35;;;;;;;;;;;11.70;99.90;;;;;;4229697;28;20012;-61
2022/10/11 08:13:36;;;;;;;;;;;11.70;99.90;;;;;;4227134;28;19945;-61
2022/10/11 08:15:37;;;;;;;;;;;11.80;99.90;;;;;;4229461;28;20384;-62
2022/10/11 08:17:38;;;;;;;;;;;11.90;99.90;;;;;;4228181;28;19912;-63
2022/10/11 08:19:39;;;;;;;;;;;12.30;99.90;;;;;;4227601;27;19915;-64
2022/10/11 08:21:40;;;;;;;;;;;12.70;99.90;;;;;;4228403;28;19916;-64
2022/10/11 08:23:41;;;;;;;;;;;13.00;99.90;;;;;;4228175;28;19951;-62
2022/10/11 08:25:43;;;;;;;;;;;12.80;99.90;;;;;;4229030;28;19908;-62
2022/10/11 08:27:44;;;;;;;;;;;12.70;99.90;;;;;;4227550;28;19911;-61
2022/10/11 08:29:45;;;;;;;;;;;12.80;99.90;;;;;;4229191;28;20418;-61
2022/10/11 08:31:46;;;;;;;;;;;13.00;99.90;;;;;;4225610;28;19922;-61
2022/10/11 08:33:47;;;;;;;;;;;13.00;99.90;;;;;;4228057;28;19916;-61
2022/10/11 08:35:49;;;;;;;;;;;13.00;99.90;;;;;;4226924;27;20462;-63
2022/10/11 08:37:50;;;;;;;;;;;13.10;99.90;;;;;;4227843;28;19965;-62
2022/10/11 08:39:51;;;;;;;;;;;13.30;99.90;;;;;;4228147;27;19911;-61
2022/10/11 08:41:53;;;;;;;;;;;13.40;99.90;;;;;;4229379;28;19924;-62
2022/10/11 08:43:57;;;;;;;;;;;13.80;99.90;;;;;;4227966;28;20376;-61
2022/10/11 08:45:59;;;;;;;;;;;14.00;99.90;;;;;;4227704;28;19923;-61
2022/10/11 08:48:03;;;;;;;;;;;13.90;99.90;;;;;;4227648;28;19912;-62
2022/10/11 08:50:05;;;;;;;;;;;13.90;99.90;;;;;;4228599;28;19961;-62
2022/10/11 08:52:33;;;;;;;;;;;13.80;99.90;;;;;;4227598;27;20256;-61
2022/10/11 08:54:39;;;;;;;;;;;13.70;99.90;;;;;;4225822;28;19957;-62
2022/10/11 08:56:42;;;;;;;;;;;13.80;99.90;;;;;;4227351;28;19930;-62
2022/10/11 08:58:43;;;;;;;;;;;13.80;99.90;;;;;;4211903;28;19916;-62
2022/10/11 09:00:46;;;;;;;;;;;13.70;99.90;;;;;;4215891;28;19920;-62
2022/10/11 09:02:50;;;;;;;;;;;13.60;99.90;;;;;;4228105;28;19973;-62
2022/10/11 09:04:52;;;;;;;;;;;13.50;99.90;;;;;;4240592;27;19976;-62
2022/10/11 09:06:53;;;;;;;;;;;13.50;99.90;;;;;;4227769;28;19956;-62
2022/10/11 09:09:13;;;;;;;;;;;13.60;99.90;;;;;;4228052;27;19911;-62
2022/10/11 09:11:30;;;;;;;;;;;13.80;99.90;;;;;;4228111;28;19912;-62
2022/10/11 09:13:43;;;;;;;;;;;13.90;99.90;;;;;;4228581;28;19908;-63
2022/10/11 09:15:45;;;;;;;;;;;14.00;99.90;;;;;;4228060;28;20341;-61
2022/10/11 09:18:08;;;;;;;;;;;14.10;99.90;;;;;;4228974;28;19907;-62
2022/10/11 09:20:09;;;;;;;;;;;14.10;99.90;;;;;;4228282;28;20326;-63
2022/10/11 09:22:25;;;;;;;;;;;14.30;99.90;;;;;;4227455;28;19924;-62
2022/10/11 09:24:31;;;;;;;;;;;14.30;99.90;;;;;;4227657;28;19915;-63
2022/10/11 09:26:35;;;;;;;;;;;14.40;99.90;;;;;;4228030;28;20268;-63
2022/10/11 09:29:02;;;;;;;;;;;14.20;99.90;;;;;;4227449;28;19960;-63
2022/10/11 09:31:08;;;;;;;;;;;14.10;99.90;;;;;;4202835;28;19912;-63
2022/10/11 09:33:08;;;;;;;;;;;14.20;99.90;;;;;;4227521;28;19915;-65
2022/10/11 09:35:14;;;;;;;;;;;14.20;99.90;;;;;;4227442;28;19911;-63
2022/10/11 09:37:21;;;;;;;;;;;14.10;99.90;;;;;;4227034;28;19948;-63
2022/10/11 09:39:30;;;;;;;;;;;14.10;99.90;;;;;;4227531;28;19908;-63
2022/10/11 09:41:40;;;;;;;;;;;14.20;99.90;;;;;;4227301;28;19916;-62
2022/10/11 09:43:43;;;;;;;;;;;14.30;99.90;;;;;;4227952;28;20401;-62
2022/10/11 09:45:45;;;;;;;;;;;14.50;99.90;;;;;;4226833;28;20326;-61
2022/10/11 09:47:48;;;;;;;;;;;14.40;99.90;;;;;;4228197;28;20440;-63
2022/10/11 09:49:55;;;;;;;;;;;14.40;99.90;;;;;;4227252;28;20310;-61
2022/10/11 09:51:57;;;;;;;;;;;14.30;99.90;;;;;;4228271;28;19953;-63
2022/10/11 09:54:00;;;;;;;;;;;14.20;99.90;;;;;;4227157;28;19916;-63
2022/10/11 09:56:02;;;;;;;;;;;14.20;99.90;;;;;;4228388;28;20387;-61
2022/10/11 09:58:04;;;;;;;;;;;14.30;99.90;;;;;;4226819;28;19908;-62
2022/10/11 10:00:11;;;;;;;;;;;14.30;99.90;;;;;;4228325;28;19908;-61
2022/10/11 10:02:11;;;;;;;;;;;14.30;99.90;;;;;;4226459;28;20353;-62
2022/10/11 10:04:15;;;;;;;;;;;14.30;99.90;;;;;;4228090;28;19943;-62
2022/10/11 10:06:21;;;;;;;;;;;14.40;99.90;;;;;;4225706;28;19908;-61
2022/10/11 10:08:23;;;;;;;;;;;14.70;99.90;;;;;;4228056;28;19965;-62
2022/10/11 10:10:26;;;;;;;;;;;15.00;99.90;;;;;;4225358;28;19912;-62
2022/10/11 10:12:29;;;;;;;;;;;15.00;99.90;;;;;;4228607;28;19976;-61
2022/10/11 10:14:30;;;;;;;;;;;15.00;99.90;;;;;;4227079;28;19929;-62
2022/10/11 10:16:32;;;;;;;;;;;15.00;99.90;;;;;;4227293;28;19912;-62
2022/10/11 10:18:35;;;;;;;;;;;15.10;99.90;;;;;;4226327;28;19949;-60
2022/10/11 10:20:36;;;;;;;;;;;15.30;99.90;;;;;;4226010;28;19968;-62
2022/10/11 10:22:37;;;;;;;;;;;15.40;99.90;;;;;;4225265;28;20639;-65
2022/10/11 10:24:39;;;;;;;;;;;15.60;99.90;;;;;;4227235;28;20353;-64
2022/10/11 10:26:40;;;;;;;;;;;15.70;99.90;;;;;;4227956;28;19985;-64
2022/10/11 10:29:00;;;;;;;;;;;15.90;99.90;;;;;;4225215;28;19908;-61
2022/10/11 10:31:01;;;;;;;;;;;16.00;99.90;;;;;;4227773;28;19961;-62
2022/10/11 10:33:08;;;;;;;;;;;15.90;99.90;;;;;;4226493;28;20322;-62
2022/10/11 10:35:15;;;;;;;;;;;16.00;99.90;;;;;;4226197;28;19924;-62
2022/10/11 10:37:28;;;;;;;;;;;16.10;99.90;;;;;;4229087;28;19973;-62
2022/10/11 10:39:28;;;;;;;;;;;16.20;99.90;;;;;;4227560;28;19916;-63
2022/10/11 10:41:29;;;;;;;;;;;16.20;99.90;;;;;;4229004;28;19930;-62
2022/10/11 10:43:35;;;;;;;;;;;16.20;99.90;;;;;;4231500;28;20282;-62
2022/10/11 10:45:48;;;;;;;;;;;16.20;99.90;;;;;;4229311;28;19961;-62
2022/10/11 10:47:55;;;;;;;;;;;16.30;99.90;;;;;;4229517;28;19916;-62
2022/10/11 10:50:01;;;;;;;;;;;16.20;99.90;;;;;;4229125;28;19935;-62
2022/10/11 10:52:11;;;;;;;;;;;16.30;99.90;;;;;;4230717;28;20329;-61
2022/10/11 10:54:25;;;;;;;;;;;16.40;99.90;;;;;;4229348;28;19980;-61
2022/10/11 10:56:28;;;;;;;;;;;16.50;99.90;;;;;;4229979;28;20314;-61
2022/10/11 10:58:29;;;;;;;;;;;16.40;99.90;;;;;;4214391;28;19912;-62
2022/10/11 11:00:38;;;;;;;;;;;16.50;99.90;;;;;;4230900;28;19912;-62
2022/10/11 11:02:41;;;;;;;;;;;16.60;99.90;;;;;;4228890;28;20027;-61
2022/10/11 11:04:44;;;;;;;;;;;16.60;99.90;;;;;;4230387;28;20359;-62
2022/10/11 11:07:06;;;;;;;;;;;16.70;99.90;;;;;;4228572;28;20260;-63
2022/10/11 11:09:10;;;;;;;;;;;16.60;99.90;;;;;;4213247;28;19916;-61
2022/10/11 11:11:20;;;;;;;;;;;16.60;99.90;;;;;;4228586;28;19956;-61
2022/10/11 11:13:36;;;;;;;;;;;16.70;99.90;;;;;;4230887;28;20425;-61
2022/10/11 11:15:51;;;;;;;;;;;16.70;99.90;;;;;;4228532;28;19912;-60
2022/10/11 11:17:52;;;;;;;;;;;16.70;99.90;;;;;;4228928;28;19920;-62
2022/10/11 11:20:01;;;;;;;;;;;16.60;99.90;;;;;;4227908;28;20291;-61
2022/10/11 11:22:07;;;;;;;;;;;16.70;99.90;;;;;;4230044;28;19916;-62
2022/10/11 11:24:14;;;;;;;;;;;16.80;99.90;;;;;;4228449;28;19911;-64
2022/10/11 11:26:21;;;;;;;;;;;16.80;99.90;;;;;;4229753;28;20329;-62
2022/10/11 11:28:31;;;;;;;;;;;16.80;99.90;;;;;;4228753;28;19957;-62
2022/10/11 11:31:07;;;;;;;;;;;16.80;99.90;;;;;;4243538;27;19911;-62
2022/10/11 11:33:11;;;;;;;;;;;16.80;99.90;;;;;;4176235;28;19951;-62
2022/10/11 11:35:15;;;;;;;;;;;16.80;99.90;;;;;;4205949;28;19961;-63
2022/10/11 11:37:32;;;;;;;;;;;16.80;99.90;;;;;;4227804;28;20274;-60
2022/10/11 11:39:42;;;;;;;;;;;16.90;99.90;;;;;;4212856;28;20315;-62
2022/10/11 11:41:49;;;;;;;;;;;17.00;99.90;;;;;;4211682;28;20372;-61
2022/10/11 11:43:49;;;;;;;;;;;17.00;99.90;;;;;;4213345;28;20318;-61
2022/10/11 11:45:53;;;;;;;;;;;17.10;99.90;;;;;;4211469;28;20043;-62
2022/10/11 11:47:58;;;;;;;;;;;17.20;99.90;;;;;;4216816;28;19957;-62
2022/10/11 11:50:02;;;;;;;;;;;17.20;99.90;;;;;;4227835;28;19958;-61
2022/10/11 11:52:05;;;;;;;;;;;17.20;99.90;;;;;;4229336;28;19912;-64
2022/10/11 11:54:19;;;;;;;;;;;17.30;99.90;;;;;;4228438;28;20048;-61
2022/10/11 11:56:40;;;;;;;;;;;17.50;99.90;;;;;;4229491;28;20314;-62
2022/10/11 11:58:51;;;;;;;;;;;17.50;99.90;;;;;;4228216;28;19912;-62
2022/10/11 12:00:58;;;;;;;;;;;17.50;99.90;;;;;;4229883;28;20436;-61
2022/10/11 12:03:00;;;;;;;;;;;17.60;99.90;;;;;;4228835;27;19923;-61
2022/10/11 12:05:04;;;;;;;;;;;17.60;99.90;;;;;;4227964;28;19907;-60